Aérodrome :
LOGIN :

S'inscrire | Disclaimer

   EN    FR    IT 

 










Légende :    VFR   VFR Marginal   IFR   IFR Intensif   IFR Très Intensif
Visi : 
Plafond : 
>= 8 km
>= 3000ft
5 à 8 km
1000 à 3000 ft
1500m à 5 km
500 à 1000 ft
800 à 1500m
200 à 500 ft
< 800m
< 200 ft
Symboles :   Orages  Brouillard  Fortes neiges  Fortes précipitations  Vent > 20 kt
SIGMETs :   Divers  Orages  Givrage  Turbulence  Onde Orograph.  Cendres Volcan.






- Altitude de l'aérodrome : 106 ft
- Code IATA : NRN


EDLV - Weeze

DERNIER METAR :
  • 191650Z 29007KT 9999 FEW033 24/17 Q1014

METARs EXPIRÉS :
  • 191620Z 30007KT 260V340 9999 FEW031 SCT048 24/17 Q1014
  • 191550Z 29009KT 260V320 9999 FEW032 SCT049 25/17 Q1014
  • 191520Z 28009KT 9999 BKN046 25/17 Q1013
  • 191450Z 29008KT 250V340 9999 SCT034 25/16 Q1013
  • 191420Z 28008KT 9999 FEW034 25/16 Q1014

TAF TAF EDLV
Valide du 19 à 12h jusqu'au 20 à 12h UTC


191100Z 1912/2012 26009KT 9999 SCT035
TEMPO 1917/1924 3000 SHRA BKN012CB
BECMG 1918/1921 26003KT
PROB40
TEMPO 2000/2009 3000 BR BKN005
BECMG 2010/2012 27008KT



MET'MAP, la Météo Aéronautique d'un coup d'oeil ! - Copyright ORBIFLY Décembre 2007 - Disclaimer

ORBIFLY MET'MAP TEAM :

Programmation & Développement : Alexandra Zaïnal
Sur une idée originale de : Baudouin d'Aumeries
Soutien technique & logistique : Manuel Goepfert
Assistance : Marc-Olivier Méhu




SOURCES & CREDITS :

   NOAA